Detroit, Michigan
Traffic Map
Current Weather Conditions
Detroit, Michigan
Broken Clouds
Broken Clouds

Feels Like: 7°
Wind Chill: Ceiling: 26000
Heat Index: Visibility: 15mi
Dew Point: Wind: 9mph
Humidity: 82% Direction: 10° (N)
Pressure: 29.8in Gusts: 0mph
Raw Report DataCYQG 051200Z 01008KT 15SM FEW090 BKN260 09/06 A2980 RMK AC1CI4 SLP095
Traffic Incident Summary
Active as of:
Severity:
Category:
InformationThere was an issue retrieving the traffic information for this location. Please try a different location or try again shortly.
Advertisements
Track Severe Weather on mobile